Laguna Beach, California
Current Conditions -  °F | °C
As of 1:53 PM on Monday 20 Oct 2014 (Local Time) from KSNA Reporting Station
Scattered Clouds Scattered Clouds  
Wind Chill: 76°   Ceiling: Unl
Heat Index: 76°   Visibility: 10mi
Dew Point: 60°   Wind: 0mph
Humidity: 58%   Direction: NA
Pressure: 29.89"   Gusts: NA
Location:  33.55°N, 117.78°W
Report Text: KSNA 202053Z 00000KT 10SM FEW021 SCT250 24/16 A2989 RMK AO2 SLP120 T02440156 58021
Loading
Personal Weather Stations






























Interactive Weather Map
Tropical Storm Tracking
New forecast layout! Learn more

10-Day Weather Forecast

Advertisements
Track Severe Weather on mobile